Flight Track Log - Related Links

Times and Time Zones

All times are in EDT time to prevent confusion due to time zone crossing. See the ASQ4252 flight status page for this flight to view local times or setup timezone preferences in your user account.

Time Position Orientation Groundspeed Altitude Reporting Facility
EDT Latitude Longitude Course Direction KTS km/h feet Rate Location/Type
Fri 11:11:46 36.2267 -94.3706 287° West 249 462 6.500  Level Kansas City Center
Fri 11:12:00 36.5383 -94.3543 351° North  Level FlightAware Approximate
Fri 11:12:48 36.3058 -94.3792 355° North 280 518 9.100  Level Kansas City Center
Fri 11:13:00 36.6284 -94.3761 345° North  Level FlightAware Approximate
Fri 11:13:50 36.3908 -94.3894 354° North 297 550 11.400  Level Kansas City Center
Fri 11:14:00 36.7188 -94.3971 351° North  Level FlightAware Approximate
Fri 11:14:52 36.4992 -94.4003 355° North 317 587 13.600  Level Kansas City Center
Fri 11:15:00 36.8237 -94.4237 321° Northwest  Level FlightAware Approximate
Fri 11:15:54 36.5975 -94.4108 355° North 341 631 15.100  Level Kansas City Center
Fri 11:16:00 36.8813 -94.3297 60° Northeast  Level FlightAware Approximate
Fri 11:16:56 36.6994 -94.4206 356° North 362 671 16.500  Level Kansas City Center
Fri 11:17:58 36.8036 -94.4244 358° North 374 692 17.900 1.403 Climbing Kansas City Center
Fri 11:19:00 36.8864 -94.3464 37° Northeast 387 716 19.400 1.548 Climbing Kansas City Center
Fri 11:20:02 36.9514 -94.2067 60° Northeast 390 723 21.100 1.548 Climbing Kansas City Center
Fri 11:21:04 37.0058 -94.0897 60° Northeast 390 723 22.600 1.500 Climbing Kansas City Center
Fri 11:22:06 37.0617 -93.9736 59° Northeast 389 721 24.200 1.500 Climbing Kansas City Center
Fri 11:23:08 37.1144 -93.8581 60° Northeast 385 713 25.700 1.548 Climbing Kansas City Center
Fri 11:24:10 37.1717 -93.7342 60° Northeast 383 710 27.400 1.500 Climbing Kansas City Center
Fri 11:25:12 37.2247 -93.6194 60° Northeast 381 705 28.800 1.306 Climbing Kansas City Center
Fri 11:26:14 37.2783 -93.5028 60° Northeast 384 711 30.100 1.258 Climbing Kansas City Center
Fri 11:27:16 37.3325 -93.3856 60° Northeast 387 716 31.400 1.161 Climbing Kansas City Center
Fri 11:28:18 37.4078 -93.2894 45° Northeast 388 719 32.500 774 Climbing Kansas City Center
Fri 11:29:20 37.5128 -93.1886 37° Northeast 393 727 33.000 242 Climbing Kansas City Center
Fri 11:30:22 37.6097 -93.0994 36° Northeast 420 777 33.000  Level Kansas City Center
Fri 11:31:24 37.7086 -93.0072 36° Northeast 436 808 33.000  Level Kansas City Center
Fri 11:32:26 37.8058 -92.9164 36° Northeast 433 801 33.000  Level Kansas City Center
Fri 11:33:28 37.9081 -92.8217 36° Northeast 448 830 33.000  Level Kansas City Center
Fri 11:34:30 38.0086 -92.7261 37° Northeast 470 871 33.000  Level Kansas City Center
Fri 11:35:32 38.1381 -92.6056 36° Northeast 480 888 33.000  Level Kansas City Center
Fri 11:36:34 38.2358 -92.5147 36° Northeast 485 898 33.000  Level Kansas City Center
Fri 11:37:36 38.3458 -92.4092 37° Northeast 488 904 33.000  Level Kansas City Center
Fri 11:38:38 38.4783 -92.2822 37° Northeast 490 908 33.000  Level Kansas City Center
Fri 11:39:40 38.5878 -92.1769 37° Northeast 490 908 33.000  Level Kansas City Center
Fri 11:40:43 38.6969 -92.0722 37° Northeast 489 906 33.000  Level Kansas City Center
Fri 11:41:45 38.8053 -91.9672 37° Northeast 486 900 33.000  Level Kansas City Center
Fri 11:42:47 38.9119 -91.8636 37° Northeast 483 895 33.000  Level Kansas City Center
Fri 11:43:49 39.0150 -91.7653 37° Northeast 468 867 33.000  Level Kansas City Center
Fri 11:44:52 39.1258 -91.6556 38° Northeast 468 867 33.000  Level Kansas City Center
Fri 11:45:53 39.2347 -91.5500 37° Northeast 481 892 33.000  Level Kansas City Center
Fri 11:46:55 39.3453 -91.4411 37° Northeast 492 911 33.000  Level Kansas City Center
Fri 11:47:57 39.4564 -91.3314 37° Northeast 499 924 33.000  Level Kansas City Center
Fri 11:48:59 39.5667 -91.2225 37° Northeast 498 922 33.000  Level Kansas City Center
Fri 11:50:01 39.6978 -91.0917 38° Northeast 497 921 33.000  Level Kansas City Center
Fri 11:51:03 39.8019 -90.9869 38° Northeast 490 908 33.000  Level Kansas City Center
Fri 11:52:05 39.9047 -90.8847 37° Northeast 486 900 33.000  Level Kansas City Center
Fri 11:53:07 40.0108 -90.7775 38° Northeast 483 895 33.000  Level Kansas City Center
Fri 11:54:09 40.1375 -90.6481 38° Northeast 482 893 33.000  Level Kansas City Center
Fri 11:55:11 40.2433 -90.5403 38° Northeast 482 893 33.000  Level Kansas City Center
Fri 11:56:13 40.3489 -90.4314 38° Northeast 482 893 33.000  Level Kansas City Center
Fri 11:57:15 40.4550 -90.3236 38° Northeast 481 892 33.000  Level Kansas City Center
Fri 11:58:17 40.5553 -90.2208 38° Northeast 478 885 33.000  Level Kansas City Center
Fri 11:59:19 40.6819 -90.0897 38° Northeast 484 896 33.000 -97 Level Kansas City Center
Fri 12:00:21 40.7894 -89.9806 38° Northeast 490 908 32.800 -1.551 Descending Kansas City Center
Fri 12:01:46 40.9325 -89.8294 39° Northeast 484 896 29.200 -2.694 Descending Chicago Center
Fri 12:02:48 41.0358 -89.7208 38° Northeast 483 895 26.200 -2.565 Descending Chicago Center
Fri 12:03:50 41.1586 -89.5811 41° Northeast 485 898 23.900 -2.032 Descending Chicago Center
Fri 12:04:52 41.2244 -89.4272 60° Northeast 480 888 22.000 -1.984 Descending Chicago Center
Fri 12:05:54 41.2842 -89.2800 62° Northeast 463 858 19.800 -1.984 Descending Chicago Center
Fri 12:06:56 41.3397 -89.1458 61° Northeast 426 789 17.900 -1.790 Descending Chicago Center
Fri 12:07:58 41.4369 -89.0731 29° Northeast 406 752 16.100 -2.081 Descending Chicago Center
Fri 12:09:00 41.4892 -88.9167 66° East 402 745 13.600 -2.323 Descending Chicago Center
Fri 12:10:02 41.5047 -88.7744 82° East 390 723 11.300 -1.248 Descending Chicago Center
Fri 12:11:05 41.5378 -88.6436 71° East 378 700 11.000 -144 Descending Chicago Center
Fri 12:12:07 41.5858 -88.5211 62° Northeast 372 689 11.000  Level Chicago Center
Fri 12:13:09 41.6436 -88.4064 56° Northeast 371 687 11.000 -435 Level Chicago Center
Fri 12:14:11 41.7033 -88.3039 52° Northeast 345 639 10.100 -1.548 Descending Chicago Center
Fri 12:15:13 41.7683 -88.1939 52° Northeast 315 583 7.800 -1.500 Descending Chicago Center
Fri 12:16:15 41.8197 -88.1044 52° Northeast 304 563 7.000 -387 Descending Chicago Center
Fri 12:17:17 41.8697 -88.0136 54° Northeast 302 560 7.000  Level Chicago Center
Fri 12:17:51 41.8833 -87.9500 74° East 299 554 7.000  Level Chicago TRACON
Fri 12:18:57 41.8833 -87.8333 90° East 291 539 7.000 -810 Level Chicago TRACON
Fri 12:19:57 41.8833 -87.7333 90° East 272 504 5.300 -992 Descending Chicago TRACON
Fri 12:20:58 41.8833 -87.6333 90° East 277 513 5.000 -149 Descending Chicago TRACON
Fri 12:21:58 41.8833 -87.5167 90° East 276 512 5.000  Level Chicago TRACON
Fri 12:22:58 41.8833 -87.4333 90° East 258 478 5.000  Level Chicago TRACON
Fri 12:23:29 41.9122 -87.4014 39° Northeast 258 478 5.000  Level Chicago Center
Fri 12:24:32 41.9731 -87.4147 351° North 239 443 5.000  Level Chicago Center
Fri 12:25:34 41.9678 -87.4806 264° West 201 372 5.000  Level Chicago Center
Fri 12:26:36 41.9689 -87.5675 271° West 193 357 5.000 -387 Level Chicago Center
Fri 12:27:38 41.9692 -87.6386 270° West 193 357 4.200 -823 Descending Chicago Center
Fri 12:28:40 41.9689 -87.7061 270° West 189 349 3.300 -871 Descending Chicago Center

Login

Don't have an account? Register now (free) for customized features, flight alerts, and more!